Orlando, Florida
Current Conditions -  °F | °C
As of 9:16 AM on Saturday 01 Nov 2014 (Local Time) from KORL Reporting Station
Broken Clouds Broken Clouds  
Wind Chill: 14°   Ceiling: 2600
Heat Index: 14°   Visibility: 10mi
Dew Point:   Wind: 16mph
Humidity: 67%   Direction: 300°WNW
Pressure: 30"   Gusts: 24mph
Location:  28.54°N, 81.38°W
Report Text: KORL 011316Z 30014G21KT 10SM BKN026 14/08 A3000 RMK AO2 T01390078
Loading
Personal Weather Stations






























Interactive Weather Map
Tropical Storm Tracking
New forecast layout! Learn more

10-Day Weather Forecast

Advertisements
Track Severe Weather on mobile